sensor_id;sensor_type;location;lat;lon;timestamp;pressure;altitude;pressure_sealevel;temperature;humidity
47274;BME280;33007;49.082;19.306;2022-10-31T00:00:59;96707.44;;;8.57;100.00
47274;BME280;33007;49.082;19.306;2022-10-31T00:03:25;96668.47;;;8.29;100.00
47274;BME280;33007;49.082;19.306;2022-10-31T00:05:52;96674.75;;;8.26;100.00
47274;BME280;33007;49.082;19.306;2022-10-31T00:08:18;96704.75;;;8.45;100.00
47274;BME280;33007;49.082;19.306;2022-10-31T00:10:45;96651.28;;;8.10;100.00
47274;BME280;33007;49.082;19.306;2022-10-31T00:13:12;96706.50;;;8.38;100.00
47274;BME280;33007;49.082;19.306;2022-10-31T00:15:39;96686.75;;;8.25;100.00
47274;BME280;33007;49.082;19.306;2022-10-31T00:18:06;96707.25;;;8.39;100.00
47274;BME280;33007;49.082;19.306;2022-10-31T00:20:32;96675.50;;;8.14;100.00
47274;BME280;33007;49.082;19.306;2022-10-31T00:23:02;96711.81;;;8.42;100.00
47274;BME280;33007;49.082;19.306;2022-10-31T00:25:28;96683.75;;;8.23;100.00
47274;BME280;33007;49.082;19.306;2022-10-31T00:27:54;96709.31;;;8.48;100.00
47274;BME280;33007;49.082;19.306;2022-10-31T00:30:20;96675.09;;;8.16;100.00
47274;BME280;33007;49.082;19.306;2022-10-31T00:32:46;96695.09;;;8.31;100.00
47274;BME280;33007;49.082;19.306;2022-10-31T00:35:12;96699.66;;;8.34;100.00
47274;BME280;33007;49.082;19.306;2022-10-31T00:37:37;96674.13;;;8.22;100.00
47274;BME280;33007;49.082;19.306;2022-10-31T00:40:03;96671.41;;;8.22;100.00
47274;BME280;33007;49.082;19.306;2022-10-31T00:42:29;96677.78;;;8.28;100.00
47274;BME280;33007;49.082;19.306;2022-10-31T00:44:55;96667.84;;;8.12;100.00
47274;BME280;33007;49.082;19.306;2022-10-31T00:47:21;96656.69;;;8.10;100.00
47274;BME280;33007;49.082;19.306;2022-10-31T00:49:46;96667.41;;;8.14;100.00
47274;BME280;33007;49.082;19.306;2022-10-31T00:52:12;96688.28;;;8.26;100.00
47274;BME280;33007;49.082;19.306;2022-10-31T00:54:37;96664.91;;;8.20;100.00
47274;BME280;33007;49.082;19.306;2022-10-31T00:57:03;96675.31;;;8.21;100.00
47274;BME280;33007;49.082;19.306;2022-10-31T00:59:29;96693.41;;;8.37;100.00
47274;BME280;33007;49.082;19.306;2022-10-31T01:01:54;96700.00;;;8.49;100.00
47274;BME280;33007;49.082;19.306;2022-10-31T01:04:20;96669.34;;;8.26;100.00
47274;BME280;33007;49.082;19.306;2022-10-31T01:06:46;96657.66;;;8.17;100.00
47274;BME280;33007;49.082;19.306;2022-10-31T01:09:11;96682.00;;;8.29;100.00
47274;BME280;33007;49.082;19.306;2022-10-31T01:11:37;96655.94;;;8.10;100.00
47274;BME280;33007;49.082;19.306;2022-10-31T01:14:02;96695.56;;;8.42;100.00
47274;BME280;33007;49.082;19.306;2022-10-31T01:16:28;96647.59;;;8.17;100.00
47274;BME280;33007;49.082;19.306;2022-10-31T01:18:55;96631.47;;;8.13;100.00
47274;BME280;33007;49.082;19.306;2022-10-31T01:21:26;96710.78;;;8.74;100.00
47274;BME280;33007;49.082;19.306;2022-10-31T01:23:54;96710.53;;;8.81;100.00
47274;BME280;33007;49.082;19.306;2022-10-31T01:26:25;96712.06;;;8.82;100.00
47274;BME280;33007;49.082;19.306;2022-10-31T01:28:53;96708.47;;;8.85;100.00
47274;BME280;33007;49.082;19.306;2022-10-31T01:31:21;96690.63;;;8.75;100.00
47274;BME280;33007;49.082;19.306;2022-10-31T01:33:48;96676.13;;;8.69;100.00
47274;BME280;33007;49.082;19.306;2022-10-31T01:36:43;96685.00;;;8.70;100.00
47274;BME280;33007;49.082;19.306;2022-10-31T01:39:14;96658.38;;;8.55;100.00
47274;BME280;33007;49.082;19.306;2022-10-31T01:41:48;96679.81;;;8.62;100.00
47274;BME280;33007;49.082;19.306;2022-10-31T01:46:53;96705.59;;;8.67;100.00
47274;BME280;33007;49.082;19.306;2022-10-31T01:49:22;96689.69;;;8.69;100.00
47274;BME280;33007;49.082;19.306;2022-10-31T01:52:02;96647.41;;;8.37;100.00
47274;BME280;33007;49.082;19.306;2022-10-31T01:54:33;96651.38;;;8.45;100.00
47274;BME280;33007;49.082;19.306;2022-10-31T01:57:01;96642.94;;;8.43;100.00
47274;BME280;33007;49.082;19.306;2022-10-31T01:59:30;96713.56;;;8.83;100.00
47274;BME280;33007;49.082;19.306;2022-10-31T02:01:57;96681.00;;;8.61;100.00
47274;BME280;33007;49.082;19.306;2022-10-31T02:04:24;96698.19;;;8.80;100.00
47274;BME280;33007;49.082;19.306;2022-10-31T02:06:57;96686.81;;;8.73;100.00
47274;BME280;33007;49.082;19.306;2022-10-31T02:09:25;96679.72;;;8.66;100.00
47274;BME280;33007;49.082;19.306;2022-10-31T02:11:52;96625.16;;;8.29;100.00
47274;BME280;33007;49.082;19.306;2022-10-31T02:14:22;96633.63;;;8.31;100.00
47274;BME280;33007;49.082;19.306;2022-10-31T02:16:49;96679.81;;;8.62;100.00
47274;BME280;33007;49.082;19.306;2022-10-31T02:19:21;96616.63;;;8.18;100.00
47274;BME280;33007;49.082;19.306;2022-10-31T02:27:08;96711.19;;;8.85;100.00
47274;BME280;33007;49.082;19.306;2022-10-31T02:35:31;96709.47;;;8.79;100.00
47274;BME280;33007;49.082;19.306;2022-10-31T02:38:08;96714.66;;;8.73;100.00
47274;BME280;33007;49.082;19.306;2022-10-31T02:40:42;96665.91;;;8.38;100.00
47274;BME280;33007;49.082;19.306;2022-10-31T02:43:26;96678.22;;;8.52;100.00
47274;BME280;33007;49.082;19.306;2022-10-31T02:48:28;96715.56;;;8.70;100.00
47274;BME280;33007;49.082;19.306;2022-10-31T02:50:57;96682.09;;;8.51;100.00
47274;BME280;33007;49.082;19.306;2022-10-31T02:53:25;96673.78;;;8.46;100.00
47274;BME280;33007;49.082;19.306;2022-10-31T02:56:14;96729.19;;;8.79;100.00
47274;BME280;33007;49.082;19.306;2022-10-31T02:58:50;96675.84;;;8.54;100.00
47274;BME280;33007;49.082;19.306;2022-10-31T03:12:00;96695.44;;;8.58;100.00
47274;BME280;33007;49.082;19.306;2022-10-31T03:14:42;96731.16;;;8.66;100.00
47274;BME280;33007;49.082;19.306;2022-10-31T03:17:42;96702.16;;;8.41;100.00
47274;BME280;33007;49.082;19.306;2022-10-31T03:20:10;96707.16;;;8.43;100.00
47274;BME280;33007;49.082;19.306;2022-10-31T03:22:37;96717.00;;;8.49;100.00
47274;BME280;33007;49.082;19.306;2022-10-31T03:25:07;96698.22;;;8.29;100.00
47274;BME280;33007;49.082;19.306;2022-10-31T03:27:34;96733.34;;;8.46;100.00
47274;BME280;33007;49.082;19.306;2022-10-31T03:30:03;96674.66;;;8.04;100.00
47274;BME280;33007;49.082;19.306;2022-10-31T03:34:57;96735.97;;;8.36;100.00
47274;BME280;33007;49.082;19.306;2022-10-31T03:37:27;96703.31;;;8.14;100.00
47274;BME280;33007;49.082;19.306;2022-10-31T03:39:55;96720.22;;;8.31;100.00
47274;BME280;33007;49.082;19.306;2022-10-31T03:42:25;96746.88;;;8.46;100.00
47274;BME280;33007;49.082;19.306;2022-10-31T03:45:17;96736.03;;;8.46;100.00
47274;BME280;33007;49.082;19.306;2022-10-31T03:47:45;96704.72;;;8.19;100.00
47274;BME280;33007;49.082;19.306;2022-10-31T03:50:13;96701.16;;;8.22;100.00
47274;BME280;33007;49.082;19.306;2022-10-31T03:52:45;96707.34;;;8.23;100.00
47274;BME280;33007;49.082;19.306;2022-10-31T03:55:30;96704.31;;;8.21;100.00
47274;BME280;33007;49.082;19.306;2022-10-31T03:58:09;96691.13;;;8.10;100.00
47274;BME280;33007;49.082;19.306;2022-10-31T04:00:38;96711.88;;;8.13;100.00
47274;BME280;33007;49.082;19.306;2022-10-31T04:03:09;96675.19;;;7.86;100.00
47274;BME280;33007;49.082;19.306;2022-10-31T04:05:37;96700.31;;;8.00;100.00
47274;BME280;33007;49.082;19.306;2022-10-31T04:08:07;96739.06;;;8.22;100.00
47274;BME280;33007;49.082;19.306;2022-10-31T04:10:36;96690.97;;;7.88;100.00
47274;BME280;33007;49.082;19.306;2022-10-31T04:13:11;96713.16;;;8.08;100.00
47274;BME280;33007;49.082;19.306;2022-10-31T04:15:39;96706.56;;;7.97;100.00
47274;BME280;33007;49.082;19.306;2022-10-31T04:18:06;96696.31;;;8.04;100.00
47274;BME280;33007;49.082;19.306;2022-10-31T04:20:38;96722.06;;;8.22;100.00
47274;BME280;33007;49.082;19.306;2022-10-31T04:23:18;96687.09;;;7.89;100.00
47274;BME280;33007;49.082;19.306;2022-10-31T04:25:44;96686.00;;;7.86;100.00
47274;BME280;33007;49.082;19.306;2022-10-31T04:28:10;96714.47;;;8.04;100.00
47274;BME280;33007;49.082;19.306;2022-10-31T04:30:35;96696.16;;;7.82;100.00
47274;BME280;33007;49.082;19.306;2022-10-31T04:33:01;96667.03;;;7.61;100.00
47274;BME280;33007;49.082;19.306;2022-10-31T04:35:26;96702.97;;;7.87;100.00
47274;BME280;33007;49.082;19.306;2022-10-31T04:37:52;96700.63;;;7.89;100.00
47274;BME280;33007;49.082;19.306;2022-10-31T04:40:18;96709.59;;;7.86;100.00
47274;BME280;33007;49.082;19.306;2022-10-31T04:42:44;96687.59;;;7.71;100.00
47274;BME280;33007;49.082;19.306;2022-10-31T04:45:09;96718.25;;;7.94;100.00
47274;BME280;33007;49.082;19.306;2022-10-31T04:47:35;96700.94;;;7.78;100.00
47274;BME280;33007;49.082;19.306;2022-10-31T04:50:01;96725.50;;;7.97;100.00
47274;BME280;33007;49.082;19.306;2022-10-31T04:52:27;96711.97;;;7.84;100.00
47274;BME280;33007;49.082;19.306;2022-10-31T04:54:53;96632.06;;;7.28;100.00
47274;BME280;33007;49.082;19.306;2022-10-31T04:57:19;96628.16;;;7.29;100.00
47274;BME280;33007;49.082;19.306;2022-10-31T04:59:44;96686.53;;;7.69;100.00
47274;BME280;33007;49.082;19.306;2022-10-31T05:02:10;96693.13;;;7.80;100.00
47274;BME280;33007;49.082;19.306;2022-10-31T05:04:35;96694.78;;;7.78;100.00
47274;BME280;33007;49.082;19.306;2022-10-31T05:07:00;96723.63;;;7.81;100.00
47274;BME280;33007;49.082;19.306;2022-10-31T05:09:26;96651.63;;;7.32;100.00
47274;BME280;33007;49.082;19.306;2022-10-31T05:11:51;96723.19;;;7.70;100.00
47274;BME280;33007;49.082;19.306;2022-10-31T05:14:17;96705.28;;;7.47;100.00
47274;BME280;33007;49.082;19.306;2022-10-31T05:16:42;96694.66;;;7.40;100.00
47274;BME280;33007;49.082;19.306;2022-10-31T05:19:08;96740.75;;;7.78;100.00
47274;BME280;33007;49.082;19.306;2022-10-31T05:21:33;96689.06;;;7.47;100.00
47274;BME280;33007;49.082;19.306;2022-10-31T05:23:59;96736.19;;;7.75;100.00
47274;BME280;33007;49.082;19.306;2022-10-31T05:26:25;96714.09;;;7.64;100.00
47274;BME280;33007;49.082;19.306;2022-10-31T05:28:51;96733.38;;;7.78;100.00
47274;BME280;33007;49.082;19.306;2022-10-31T05:31:17;96672.25;;;7.26;100.00
47274;BME280;33007;49.082;19.306;2022-10-31T05:33:42;96729.91;;;7.78;100.00
47274;BME280;33007;49.082;19.306;2022-10-31T05:36:08;96743.75;;;7.80;100.00
47274;BME280;33007;49.082;19.306;2022-10-31T05:38:33;96665.22;;;7.29;100.00
47274;BME280;33007;49.082;19.306;2022-10-31T05:40:59;96706.19;;;7.56;100.00
47274;BME280;33007;49.082;19.306;2022-10-31T05:43:26;96759.13;;;7.83;100.00
47274;BME280;33007;49.082;19.306;2022-10-31T05:45:53;96756.63;;;7.76;100.00
47274;BME280;33007;49.082;19.306;2022-10-31T05:48:19;96723.88;;;7.45;100.00
47274;BME280;33007;49.082;19.306;2022-10-31T05:50:44;96711.63;;;7.40;100.00
47274;BME280;33007;49.082;19.306;2022-10-31T05:53:10;96705.47;;;7.40;100.00
47274;BME280;33007;49.082;19.306;2022-10-31T05:55:35;96720.41;;;7.44;100.00
47274;BME280;33007;49.082;19.306;2022-10-31T05:58:01;96717.63;;;7.48;100.00
47274;BME280;33007;49.082;19.306;2022-10-31T06:00:27;96781.19;;;7.81;100.00
47274;BME280;33007;49.082;19.306;2022-10-31T06:03:00;96778.00;;;7.70;100.00
47274;BME280;33007;49.082;19.306;2022-10-31T06:05:27;96726.53;;;7.32;100.00
47274;BME280;33007;49.082;19.306;2022-10-31T06:07:53;96685.16;;;7.06;100.00
47274;BME280;33007;49.082;19.306;2022-10-31T06:10:19;96731.50;;;7.33;100.00
47274;BME280;33007;49.082;19.306;2022-10-31T06:12:46;96684.38;;;7.05;100.00
47274;BME280;33007;49.082;19.306;2022-10-31T06:15:12;96721.66;;;7.27;100.00
47274;BME280;33007;49.082;19.306;2022-10-31T06:17:38;96677.13;;;7.02;100.00
47274;BME280;33007;49.082;19.306;2022-10-31T06:20:04;96771.41;;;7.71;100.00
47274;BME280;33007;49.082;19.306;2022-10-31T06:22:30;96670.13;;;7.05;100.00
47274;BME280;33007;49.082;19.306;2022-10-31T06:24:55;96768.31;;;7.73;100.00
47274;BME280;33007;49.082;19.306;2022-10-31T06:27:21;96755.91;;;7.59;100.00
47274;BME280;33007;49.082;19.306;2022-10-31T06:29:47;96770.78;;;7.67;100.00
47274;BME280;33007;49.082;19.306;2022-10-31T06:32:13;96772.09;;;7.75;100.00
47274;BME280;33007;49.082;19.306;2022-10-31T06:34:40;96797.41;;;7.81;100.00
47274;BME280;33007;49.082;19.306;2022-10-31T06:37:07;96721.38;;;7.38;100.00
47274;BME280;33007;49.082;19.306;2022-10-31T06:39:33;96745.44;;;7.61;100.00
47274;BME280;33007;49.082;19.306;2022-10-31T06:41:59;96763.75;;;7.70;100.00
47274;BME280;33007;49.082;19.306;2022-10-31T06:44:24;96750.84;;;7.61;100.00
47274;BME280;33007;49.082;19.306;2022-10-31T06:46:50;96775.88;;;7.78;100.00
47274;BME280;33007;49.082;19.306;2022-10-31T06:49:15;96750.75;;;7.65;100.00
47274;BME280;33007;49.082;19.306;2022-10-31T06:51:41;96794.22;;;7.99;100.00
47274;BME280;33007;49.082;19.306;2022-10-31T06:54:06;96740.47;;;7.59;100.00
47274;BME280;33007;49.082;19.306;2022-10-31T06:56:32;96767.47;;;7.88;100.00
47274;BME280;33007;49.082;19.306;2022-10-31T06:58:58;96794.41;;;7.92;100.00
47274;BME280;33007;49.082;19.306;2022-10-31T07:01:23;96802.66;;;8.14;100.00
47274;BME280;33007;49.082;19.306;2022-10-31T07:03:49;96758.47;;;7.79;100.00
47274;BME280;33007;49.082;19.306;2022-10-31T07:06:14;96763.44;;;7.80;100.00
47274;BME280;33007;49.082;19.306;2022-10-31T07:08:40;96784.56;;;7.98;100.00
47274;BME280;33007;49.082;19.306;2022-10-31T07:11:05;96791.31;;;8.06;100.00
47274;BME280;33007;49.082;19.306;2022-10-31T07:13:31;96814.69;;;8.13;100.00
47274;BME280;33007;49.082;19.306;2022-10-31T07:16:01;96814.47;;;8.20;100.00
47274;BME280;33007;49.082;19.306;2022-10-31T07:18:27;96778.41;;;7.98;100.00
47274;BME280;33007;49.082;19.306;2022-10-31T07:20:53;96724.31;;;7.56;100.00
47274;BME280;33007;49.082;19.306;2022-10-31T07:23:19;96800.94;;;8.07;100.00
47274;BME280;33007;49.082;19.306;2022-10-31T07:25:44;96776.13;;;7.96;100.00
47274;BME280;33007;49.082;19.306;2022-10-31T07:28:10;96821.97;;;8.16;100.00
47274;BME280;33007;49.082;19.306;2022-10-31T07:30:38;96820.56;;;8.24;100.00
47274;BME280;33007;49.082;19.306;2022-10-31T07:33:04;96803.34;;;8.18;100.00
47274;BME280;33007;49.082;19.306;2022-10-31T07:35:31;96801.84;;;8.30;100.00
47274;BME280;33007;49.082;19.306;2022-10-31T07:37:57;96774.19;;;8.09;100.00
47274;BME280;33007;49.082;19.306;2022-10-31T07:40:23;96806.41;;;8.46;100.00
47274;BME280;33007;49.082;19.306;2022-10-31T07:42:50;96819.63;;;8.44;100.00
47274;BME280;33007;49.082;19.306;2022-10-31T07:45:19;96786.78;;;8.29;100.00
47274;BME280;33007;49.082;19.306;2022-10-31T07:47:49;96810.31;;;8.45;100.00
47274;BME280;33007;49.082;19.306;2022-10-31T07:50:22;96809.47;;;8.48;100.00
47274;BME280;33007;49.082;19.306;2022-10-31T07:52:48;96808.72;;;8.47;100.00
47274;BME280;33007;49.082;19.306;2022-10-31T07:55:22;96758.84;;;8.19;100.00
47274;BME280;33007;49.082;19.306;2022-10-31T07:58:06;96806.84;;;8.57;100.00
47274;BME280;33007;49.082;19.306;2022-10-31T08:00:34;96786.06;;;8.41;100.00
47274;BME280;33007;49.082;19.306;2022-10-31T08:03:05;96765.28;;;8.38;100.00
47274;BME280;33007;49.082;19.306;2022-10-31T08:05:31;96785.66;;;8.43;100.00
47274;BME280;33007;49.082;19.306;2022-10-31T08:07:57;96784.13;;;8.54;100.00
47274;BME280;33007;49.082;19.306;2022-10-31T08:10:24;96760.84;;;8.44;100.00
47274;BME280;33007;49.082;19.306;2022-10-31T08:12:58;96743.69;;;8.34;100.00
47274;BME280;33007;49.082;19.306;2022-10-31T08:15:24;96790.50;;;8.60;100.00
47274;BME280;33007;49.082;19.306;2022-10-31T08:17:50;96779.03;;;8.56;100.00
47274;BME280;33007;49.082;19.306;2022-10-31T08:20:15;96809.69;;;8.66;100.00
47274;BME280;33007;49.082;19.306;2022-10-31T08:22:41;96750.31;;;8.33;100.00
47274;BME280;33007;49.082;19.306;2022-10-31T08:25:06;96744.69;;;8.40;100.00
47274;BME280;33007;49.082;19.306;2022-10-31T08:27:32;96777.97;;;8.54;100.00
47274;BME280;33007;49.082;19.306;2022-10-31T08:29:57;96780.66;;;8.66;100.00
47274;BME280;33007;49.082;19.306;2022-10-31T08:32:24;96811.28;;;8.89;100.00
47274;BME280;33007;49.082;19.306;2022-10-31T08:34:50;96809.34;;;8.89;100.00
47274;BME280;33007;49.082;19.306;2022-10-31T08:37:15;96793.66;;;8.84;100.00
47274;BME280;33007;49.082;19.306;2022-10-31T08:39:47;96767.44;;;8.81;100.00
47274;BME280;33007;49.082;19.306;2022-10-31T08:42:13;96708.53;;;8.22;100.00
47274;BME280;33007;49.082;19.306;2022-10-31T08:44:40;96754.31;;;8.67;100.00
47274;BME280;33007;49.082;19.306;2022-10-31T08:47:05;96749.25;;;8.44;100.00
47274;BME280;33007;49.082;19.306;2022-10-31T08:49:31;96729.88;;;8.45;100.00
47274;BME280;33007;49.082;19.306;2022-10-31T08:51:56;96755.28;;;8.73;100.00
47274;BME280;33007;49.082;19.306;2022-10-31T08:54:22;96782.88;;;8.93;100.00
47274;BME280;33007;49.082;19.306;2022-10-31T08:56:47;96736.47;;;8.70;100.00
47274;BME280;33007;49.082;19.306;2022-10-31T08:59:13;96771.75;;;8.91;100.00
47274;BME280;33007;49.082;19.306;2022-10-31T09:01:38;96755.38;;;8.82;100.00
47274;BME280;33007;49.082;19.306;2022-10-31T09:04:04;96728.75;;;8.81;100.00
47274;BME280;33007;49.082;19.306;2022-10-31T09:06:29;96734.47;;;8.83;100.00
47274;BME280;33007;49.082;19.306;2022-10-31T09:08:54;96749.53;;;8.97;100.00
47274;BME280;33007;49.082;19.306;2022-10-31T09:11:20;96765.94;;;9.15;100.00
47274;BME280;33007;49.082;19.306;2022-10-31T09:13:45;96742.56;;;9.08;100.00
47274;BME280;33007;49.082;19.306;2022-10-31T09:16:11;96754.88;;;9.22;100.00
47274;BME280;33007;49.082;19.306;2022-10-31T09:18:36;96746.09;;;9.18;100.00
47274;BME280;33007;49.082;19.306;2022-10-31T09:21:02;96782.97;;;9.50;100.00
47274;BME280;33007;49.082;19.306;2022-10-31T09:23:28;96722.53;;;9.06;100.00
47274;BME280;33007;49.082;19.306;2022-10-31T09:25:53;96750.06;;;9.26;100.00
47274;BME280;33007;49.082;19.306;2022-10-31T09:28:21;96721.66;;;9.31;100.00
47274;BME280;33007;49.082;19.306;2022-10-31T09:30:49;96775.59;;;9.73;100.00
47274;BME280;33007;49.082;19.306;2022-10-31T09:33:15;96773.72;;;9.60;100.00
47274;BME280;33007;49.082;19.306;2022-10-31T09:35:41;96735.28;;;9.40;100.00
47274;BME280;33007;49.082;19.306;2022-10-31T09:38:14;96731.28;;;9.32;100.00
47274;BME280;33007;49.082;19.306;2022-10-31T09:43:17;96759.38;;;9.82;100.00
47274;BME280;33007;49.082;19.306;2022-10-31T09:45:56;96769.41;;;9.94;100.00
47274;BME280;33007;49.082;19.306;2022-10-31T09:48:42;96725.56;;;9.74;100.00
47274;BME280;33007;49.082;19.306;2022-10-31T09:51:17;96732.72;;;9.80;100.00
47274;BME280;33007;49.082;19.306;2022-10-31T09:56:43;96738.97;;;9.99;100.00
47274;BME280;33007;49.082;19.306;2022-10-31T09:59:36;96756.38;;;10.11;100.00
47274;BME280;33007;49.082;19.306;2022-10-31T10:02:14;96722.75;;;10.08;100.00
47274;BME280;33007;49.082;19.306;2022-10-31T10:10:01;96729.13;;;10.45;100.00
47274;BME280;33007;49.082;19.306;2022-10-31T10:12:38;96736.34;;;10.48;100.00
47274;BME280;33007;49.082;19.306;2022-10-31T10:21:03;96715.41;;;10.58;100.00
47274;BME280;33007;49.082;19.306;2022-10-31T10:23:56;96735.22;;;10.68;100.00
47274;BME280;33007;49.082;19.306;2022-10-31T10:26:37;96735.38;;;10.73;100.00
47274;BME280;33007;49.082;19.306;2022-10-31T10:31:49;96697.50;;;10.79;100.00
47274;BME280;33007;49.082;19.306;2022-10-31T10:34:27;96679.09;;;10.74;100.00
47274;BME280;33007;49.082;19.306;2022-10-31T10:37:50;96682.59;;;10.93;100.00
47274;BME280;33007;49.082;19.306;2022-10-31T10:40:23;96671.28;;;11.04;100.00
47274;BME280;33007;49.082;19.306;2022-10-31T10:55:15;96683.19;;;12.13;100.00
47274;BME280;33007;49.082;19.306;2022-10-31T10:57:56;96706.03;;;12.48;99.88
47274;BME280;33007;49.082;19.306;2022-10-31T11:00:34;96638.53;;;12.19;99.08
47274;BME280;33007;49.082;19.306;2022-10-31T11:03:00;96555.22;;;11.79;98.92
47274;BME280;33007;49.082;19.306;2022-10-31T11:07:53;96670.41;;;12.85;97.17
47274;BME280;33007;49.082;19.306;2022-10-31T11:10:19;96640.59;;;12.81;96.40
47274;BME280;33007;49.082;19.306;2022-10-31T11:13:19;96696.13;;;13.32;94.93
47274;BME280;33007;49.082;19.306;2022-10-31T11:16:10;96660.00;;;13.22;94.32
47274;BME280;33007;49.082;19.306;2022-10-31T11:18:46;96648.63;;;13.24;94.58
47274;BME280;33007;49.082;19.306;2022-10-31T11:23:46;96622.47;;;13.47;93.28
47274;BME280;33007;49.082;19.306;2022-10-31T11:26:19;96634.34;;;13.58;92.83
47274;BME280;33007;49.082;19.306;2022-10-31T11:28:58;96652.50;;;13.91;91.64
47274;BME280;33007;49.082;19.306;2022-10-31T11:31:25;96669.03;;;14.17;90.90
47274;BME280;33007;49.082;19.306;2022-10-31T11:34:00;96664.94;;;14.27;89.91
47274;BME280;33007;49.082;19.306;2022-10-31T11:36:34;96617.25;;;14.08;89.52
47274;BME280;33007;49.082;19.306;2022-10-31T11:39:03;96653.66;;;14.34;90.23
47274;BME280;33007;49.082;19.306;2022-10-31T11:41:36;96632.06;;;14.36;88.51
47274;BME280;33007;49.082;19.306;2022-10-31T11:44:15;96663.75;;;14.63;88.39
47274;BME280;33007;49.082;19.306;2022-10-31T11:46:49;96622.91;;;14.39;88.00
47274;BME280;33007;49.082;19.306;2022-10-31T11:49:41;96635.78;;;14.54;88.10
47274;BME280;33007;49.082;19.306;2022-10-31T11:54:50;96637.66;;;14.62;87.27
47274;BME280;33007;49.082;19.306;2022-10-31T11:57:23;96591.88;;;14.42;86.87
47274;BME280;33007;49.082;19.306;2022-10-31T11:59:56;96642.63;;;14.84;85.72
47274;BME280;33007;49.082;19.306;2022-10-31T12:02:22;96597.25;;;14.52;85.79
47274;BME280;33007;49.082;19.306;2022-10-31T12:05:00;96611.13;;;14.68;85.47
47274;BME280;33007;49.082;19.306;2022-10-31T12:07:30;96639.50;;;14.91;85.80
47274;BME280;33007;49.082;19.306;2022-10-31T12:09:56;96608.19;;;14.72;85.79
47274;BME280;33007;49.082;19.306;2022-10-31T12:12:34;96629.50;;;14.88;86.64
47274;BME280;33007;49.082;19.306;2022-10-31T12:23:16;96597.94;;;14.87;86.61
47274;BME280;33007;49.082;19.306;2022-10-31T12:25:54;96593.78;;;14.92;85.85
47274;BME280;33007;49.082;19.306;2022-10-31T12:28:48;96584.97;;;14.82;86.95
47274;BME280;33007;49.082;19.306;2022-10-31T12:32:00;96616.88;;;15.17;85.36
47274;BME280;33007;49.082;19.306;2022-10-31T12:37:46;96614.50;;;15.25;84.52
47274;BME280;33007;49.082;19.306;2022-10-31T12:40:42;96609.81;;;15.31;85.69
47274;BME280;33007;49.082;19.306;2022-10-31T12:45:51;96595.44;;;15.36;84.61
47274;BME280;33007;49.082;19.306;2022-10-31T12:51:19;96577.34;;;15.44;84.17
47274;BME280;33007;49.082;19.306;2022-10-31T12:56:57;96566.25;;;15.53;83.30
47274;BME280;33007;49.082;19.306;2022-10-31T13:02:35;96589.97;;;15.93;83.40
47274;BME280;33007;49.082;19.306;2022-10-31T13:07:54;96576.63;;;16.12;86.30
47274;BME280;33007;49.082;19.306;2022-10-31T13:10:55;96588.22;;;16.33;88.63
47274;BME280;33007;49.082;19.306;2022-10-31T13:13:18;96564.66;;;16.04;83.83
47274;BME280;33007;49.082;19.306;2022-10-31T13:15:49;96544.09;;;15.83;83.82
47274;BME280;33007;49.082;19.306;2022-10-31T13:18:50;96585.25;;;15.94;84.83
47274;BME280;33007;49.082;19.306;2022-10-31T13:21:23;96560.91;;;15.70;83.83
47274;BME280;33007;49.082;19.306;2022-10-31T13:23:51;96571.16;;;15.75;83.96
47274;BME280;33007;49.082;19.306;2022-10-31T13:29:25;96574.00;;;15.60;85.73
47274;BME280;33007;49.082;19.306;2022-10-31T13:31:52;96531.72;;;15.30;84.82
47274;BME280;33007;49.082;19.306;2022-10-31T13:43:28;96538.06;;;15.15;87.57
47274;BME280;33007;49.082;19.306;2022-10-31T13:46:20;96538.91;;;15.01;87.34
47274;BME280;33007;49.082;19.306;2022-10-31T13:48:44;96537.34;;;14.94;88.34
47274;BME280;33007;49.082;19.306;2022-10-31T13:51:10;96535.81;;;14.88;88.49
47274;BME280;33007;49.082;19.306;2022-10-31T13:53:40;96566.81;;;15.05;90.16
47274;BME280;33007;49.082;19.306;2022-10-31T13:56:27;96573.44;;;14.99;90.26
47274;BME280;33007;49.082;19.306;2022-10-31T14:01:32;96523.59;;;14.63;90.19
47274;BME280;33007;49.082;19.306;2022-10-31T14:06:38;96568.25;;;14.80;90.55
47274;BME280;33007;49.082;19.306;2022-10-31T14:09:05;96547.19;;;14.60;91.76
47274;BME280;33007;49.082;19.306;2022-10-31T14:11:45;96535.34;;;14.49;92.24
47274;BME280;33007;49.082;19.306;2022-10-31T14:14:12;96528.72;;;14.35;92.51
47274;BME280;33007;49.082;19.306;2022-10-31T14:16:39;96523.38;;;14.26;92.46
47274;BME280;33007;49.082;19.306;2022-10-31T14:19:18;96563.38;;;14.44;92.93
47274;BME280;33007;49.082;19.306;2022-10-31T14:21:49;96567.22;;;14.37;92.60
47274;BME280;33007;49.082;19.306;2022-10-31T14:26:57;96531.78;;;14.02;94.00
47274;BME280;33007;49.082;19.306;2022-10-31T14:29:28;96521.66;;;13.87;94.03
47274;BME280;33007;49.082;19.306;2022-10-31T14:31:57;96530.31;;;13.86;93.94
47274;BME280;33007;49.082;19.306;2022-10-31T14:34:36;96554.75;;;13.95;96.69
47274;BME280;33007;49.082;19.306;2022-10-31T14:48:39;96526.53;;;13.48;98.08
47274;BME280;33007;49.082;19.306;2022-10-31T14:51:19;96538.63;;;13.62;99.58
47274;BME280;33007;49.082;19.306;2022-10-31T14:53:49;96566.75;;;13.83;98.48
47274;BME280;33007;49.082;19.306;2022-10-31T14:56:26;96560.78;;;13.64;98.13
47274;BME280;33007;49.082;19.306;2022-10-31T14:58:55;96522.13;;;13.36;99.72
47274;BME280;33007;49.082;19.306;2022-10-31T15:01:27;96512.25;;;13.39;100.00
47274;BME280;33007;49.082;19.306;2022-10-31T15:04:11;96558.88;;;13.70;99.14
47274;BME280;33007;49.082;19.306;2022-10-31T15:06:43;96560.19;;;13.60;97.20
47274;BME280;33007;49.082;19.306;2022-10-31T15:09:24;96525.97;;;13.29;98.39
47274;BME280;33007;49.082;19.306;2022-10-31T15:11:50;96536.97;;;13.35;100.00